Time,TemperatureF,DewpointF,PressureIn,WindDirection,WindDirectionDegrees,WindSpeedMPH,WindSpeedGustMPH,Humidity,HourlyPrecipIn,Conditions,Clouds,dailyrainin,SoftwareType,DateUTC
2013-05-14 00:01:00,38.7,31.0,30.03,WSW,250,4.0,6.0,74,0.00,,,0.00,weatherlink.com 1.10,2013-05-14 04:01:00,
2013-05-14 00:16:00,38.5,31.0,30.03,WNW,293,2.0,6.0,75,0.00,,,0.00,weatherlink.com 1.10,2013-05-14 04:16:00,
2013-05-14 00:31:00,37.9,31.0,30.04,West,262,5.0,7.0,76,0.00,,,0.00,weatherlink.com 1.10,2013-05-14 04:31:00,
2013-05-14 00:46:00,38.1,31.0,30.03,West,265,5.0,7.0,76,0.00,,,0.00,weatherlink.com 1.10,2013-05-14 04:46:00,
2013-05-14 01:01:00,38.1,31.0,30.04,West,272,4.0,5.0,76,0.00,,,0.00,weatherlink.com 1.10,2013-05-14 05:01:00,
2013-05-14 01:16:00,38.2,31.0,30.04,West,267,4.0,8.0,76,0.00,,,0.00,weatherlink.com 1.10,2013-05-14 05:16:00,
2013-05-14 01:31:00,38.0,31.0,30.04,NW,317,2.0,2.0,76,0.00,,,0.00,weatherlink.com 1.10,2013-05-14 05:31:00,
2013-05-14 01:46:00,37.3,31.0,30.04,NW,324,0.0,1.0,77,0.00,,,0.00,weatherlink.com 1.10,2013-05-14 05:46:00,
2013-05-14 02:01:00,37.1,31.0,30.04,NNW,327,0.0,4.0,78,0.00,,,0.00,weatherlink.com 1.10,2013-05-14 06:01:00,
2013-05-14 02:16:00,35.8,30.0,30.04,WNW,301,0.0,2.0,79,0.00,,,0.00,weatherlink.com 1.10,2013-05-14 06:16:00,
2013-05-14 02:31:00,34.6,29.0,30.05,WNW,301,0.0,1.0,80,0.00,,,0.00,weatherlink.com 1.10,2013-05-14 06:31:00,
2013-05-14 02:47:00,33.9,29.0,30.05,WNW,301,0.0,2.0,83,0.00,,,0.00,weatherlink.com 1.10,2013-05-14 06:47:00,
2013-05-14 03:02:00,33.1,29.0,30.05,WNW,301,0.0,0.0,84,0.00,,,0.00,weatherlink.com 1.10,2013-05-14 07:02:00,
2013-05-14 03:17:00,32.9,29.0,30.05,WNW,301,0.0,0.0,85,0.00,,,0.00,weatherlink.com 1.10,2013-05-14 07:17:00,
2013-05-14 03:32:00,33.9,30.0,30.04,WNW,301,0.0,1.0,85,0.00,,,0.00,weatherlink.com 1.10,2013-05-14 07:32:00,
2013-05-14 03:47:00,33.7,29.0,30.04,WNW,301,2.0,2.0,84,0.00,,,0.00,weatherlink.com 1.10,2013-05-14 07:47:00,
2013-05-14 04:02:00,34.4,30.0,30.04,WNW,301,0.0,2.0,83,0.00,,,0.00,weatherlink.com 1.10,2013-05-14 08:02:00,
2013-05-14 04:17:00,34.6,30.0,30.04,WNW,298,1.0,4.0,83,0.00,,,0.00,weatherlink.com 1.10,2013-05-14 08:17:00,
2013-05-14 04:32:00,33.9,29.0,30.04,WNW,298,0.0,1.0,81,0.00,,,0.00,weatherlink.com 1.10,2013-05-14 08:32:00,
2013-05-14 04:47:00,32.1,28.0,30.04,WNW,298,1.0,2.0,84,0.00,,,0.00,weatherlink.com 1.10,2013-05-14 08:47:00,
2013-05-14 05:02:00,31.1,28.0,30.04,WNW,298,0.0,2.0,87,0.00,,,0.00,weatherlink.com 1.10,2013-05-14 09:02:00,
2013-05-14 05:17:00,30.6,28.0,30.04,WNW,298,0.0,2.0,89,0.00,,,0.00,weatherlink.com 1.10,2013-05-14 09:17:00,
2013-05-14 05:32:00,30.4,28.0,30.04,WNW,298,0.0,0.0,90,0.00,,,0.00,weatherlink.com 1.10,2013-05-14 09:32:00,
2013-05-14 05:47:00,30.2,28.0,30.05,WNW,298,0.0,0.0,90,0.00,,,0.00,weatherlink.com 1.10,2013-05-14 09:47:00,
2013-05-14 06:02:00,30.2,28.0,30.05,WNW,298,0.0,0.0,91,0.00,,,0.00,weatherlink.com 1.10,2013-05-14 10:02:00,
2013-05-14 06:17:00,30.5,28.0,30.05,WNW,298,0.0,0.0,91,0.00,,,0.00,weatherlink.com 1.10,2013-05-14 10:17:00,
2013-05-14 06:32:00,31.5,30.0,30.06,WNW,298,0.0,0.0,92,0.00,,,0.00,weatherlink.com 1.10,2013-05-14 10:32:00,
2013-05-14 06:47:00,33.7,31.0,30.06,WNW,298,0.0,0.0,90,0.00,,,0.00,weatherlink.com 1.10,2013-05-14 10:47:00,
2013-05-14 07:17:00,37.8,33.0,30.06,WNW,298,0.0,0.0,82,0.00,,,0.00,weatherlink.com 1.10,2013-05-14 11:17:00,
2013-05-14 07:32:00,37.8,32.0,30.06,WNW,298,0.0,2.0,80,0.00,,,0.00,weatherlink.com 1.10,2013-05-14 11:32:00,
2013-05-14 07:47:00,38.0,32.0,30.07,WSW,248,4.0,6.0,79,0.00,,,0.00,weatherlink.com 1.10,2013-05-14 11:47:00,
2013-05-14 08:02:00,38.7,33.0,30.07,WSW,252,5.0,6.0,79,0.00,,,0.00,weatherlink.com 1.10,2013-05-14 12:02:00,
2013-05-14 08:17:00,39.2,33.0,30.07,NW,315,4.0,8.0,78,0.00,,,0.00,weatherlink.com 1.10,2013-05-14 12:17:00,
2013-05-14 08:32:00,39.8,33.0,30.08,West,266,0.0,6.0,78,0.00,,,0.00,weatherlink.com 1.10,2013-05-14 12:32:00,
2013-05-14 08:47:00,40.7,34.0,30.07,West,267,4.0,6.0,77,0.00,,,0.00,weatherlink.com 1.10,2013-05-14 12:47:00,
2013-05-14 09:02:00,42.0,34.0,30.07,NNW,327,2.0,8.0,72,0.00,,,0.00,weatherlink.com 1.10,2013-05-14 13:02:00,
2013-05-14 09:17:00,42.7,32.0,30.07,NNW,336,4.0,9.0,65,0.00,,,0.00,weatherlink.com 1.10,2013-05-14 13:17:00,
2013-05-14 09:32:00,43.6,32.0,30.07,WNW,293,4.0,10.0,65,0.00,,,0.00,weatherlink.com 1.10,2013-05-14 13:32:00,
2013-05-14 09:47:00,44.3,32.0,30.06,NW,307,5.0,11.0,63,0.00,,,0.00,weatherlink.com 1.10,2013-05-14 13:47:00,
2013-05-14 10:02:00,44.2,32.0,30.05,NW,305,8.0,10.0,62,0.00,,,0.00,weatherlink.com 1.10,2013-05-14 14:02:00,
2013-05-14 10:17:00,44.8,32.0,30.05,West,266,6.0,11.0,61,0.00,,,0.00,weatherlink.com 1.10,2013-05-14 14:17:00,
2013-05-14 10:32:00,46.1,31.0,30.05,NW,315,6.0,11.0,55,0.00,,,0.00,weatherlink.com 1.10,2013-05-14 14:32:00,
2013-05-14 10:47:00,45.9,30.0,30.04,NW,309,7.0,11.0,54,0.00,,,0.00,weatherlink.com 1.10,2013-05-14 14:47:00,
2013-05-14 11:02:00,47.3,31.0,30.04,NW,304,7.0,11.0,54,0.00,,,0.00,weatherlink.com 1.10,2013-05-14 15:02:00,
2013-05-14 11:17:00,46.9,31.0,30.05,South,180,2.0,12.0,55,0.00,,,0.00,weatherlink.com 1.10,2013-05-14 15:17:00,
2013-05-14 11:33:00,47.4,32.0,30.05,NNW,347,5.0,13.0,55,0.00,,,0.00,weatherlink.com 1.10,2013-05-14 15:33:00,
2013-05-14 11:48:00,48.0,32.0,30.05,NNW,346,7.0,9.0,54,0.00,,,0.00,weatherlink.com 1.10,2013-05-14 15:48:00,
2013-05-14 12:03:00,48.3,31.0,30.05,NW,317,4.0,13.0,51,0.00,,,0.00,weatherlink.com 1.10,2013-05-14 16:03:00,
2013-05-14 12:18:00,48.5,29.0,30.05,NW,304,6.0,11.0,48,0.00,,,0.00,weatherlink.com 1.10,2013-05-14 16:18:00,
2013-05-14 12:33:00,48.8,31.0,30.04,NNE,29,5.0,11.0,51,0.00,,,0.00,weatherlink.com 1.10,2013-05-14 16:33:00,
2013-05-14 12:48:00,49.1,30.0,30.04,NNW,344,4.0,11.0,48,0.00,,,0.00,weatherlink.com 1.10,2013-05-14 16:48:00,
2013-05-14 13:03:00,49.6,30.0,30.03,NNE,19,6.0,10.0,48,0.00,,,0.00,weatherlink.com 1.10,2013-05-14 17:03:00,
2013-05-14 13:18:00,50.0,29.0,30.03,WSW,240,0.0,12.0,45,0.00,,,0.00,weatherlink.com 1.10,2013-05-14 17:18:00,
2013-05-14 13:33:00,50.6,31.0,30.02,NNE,27,6.0,9.0,47,0.00,,,0.00,weatherlink.com 1.10,2013-05-14 17:33:00,
2013-05-14 13:48:00,51.6,32.0,30.02,WNW,289,6.0,9.0,47,0.00,,,0.00,weatherlink.com 1.10,2013-05-14 17:48:00,
2013-05-14 14:03:00,51.6,31.0,30.02,West,261,5.0,14.0,46,0.00,,,0.00,weatherlink.com 1.10,2013-05-14 18:03:00,
2013-05-14 14:18:00,51.4,31.0,30.02,West,268,7.0,12.0,46,0.00,,,0.00,weatherlink.com 1.10,2013-05-14 18:18:00,
2013-05-14 14:33:00,51.9,31.0,30.02,NW,305,5.0,11.0,45,0.00,,,0.00,weatherlink.com 1.10,2013-05-14 18:33:00,
2013-05-14 14:48:00,52.6,32.0,30.00,NNE,32,5.0,10.0,45,0.00,,,0.00,weatherlink.com 1.10,2013-05-14 18:48:00,
2013-05-14 15:03:00,52.4,32.0,30.00,West,265,7.0,12.0,46,0.00,,,0.00,weatherlink.com 1.10,2013-05-14 19:03:00,
2013-05-14 15:18:00,52.6,29.0,29.99,WNW,290,0.0,10.0,40,0.00,,,0.00,weatherlink.com 1.10,2013-05-14 19:18:00,
2013-05-14 15:33:00,53.3,32.0,29.98,West,277,1.0,8.0,44,0.00,,,0.00,weatherlink.com 1.10,2013-05-14 19:33:00,
2013-05-14 15:48:00,54.3,30.0,29.98,ENE,78,3.0,8.0,39,0.00,,,0.00,weatherlink.com 1.10,2013-05-14 19:48:00,
2013-05-14 16:03:00,54.1,30.0,29.97,NNW,347,5.0,9.0,40,0.00,,,0.00,weatherlink.com 1.10,2013-05-14 20:03:00,
2013-05-14 16:18:00,55.3,31.0,29.96,ENE,57,5.0,7.0,39,0.00,,,0.00,weatherlink.com 1.10,2013-05-14 20:18:00,
2013-05-14 16:33:00,56.7,30.0,29.95,SE,138,0.0,7.0,37,0.00,,,0.00,weatherlink.com 1.10,2013-05-14 20:33:00,
2013-05-14 16:48:00,56.4,30.0,29.95,ENE,61,1.0,11.0,36,0.00,,,0.00,weatherlink.com 1.10,2013-05-14 20:48:00,
2013-05-14 17:03:00,56.3,30.0,29.95,North,9,1.0,8.0,37,0.00,,,0.00,weatherlink.com 1.10,2013-05-14 21:03:00,
2013-05-14 17:18:00,55.0,30.0,29.95,NNE,13,3.0,9.0,38,0.00,,,0.00,weatherlink.com 1.10,2013-05-14 21:18:00,
2013-05-14 17:33:00,54.3,29.0,29.95,NNE,13,0.0,8.0,38,0.00,,,0.00,weatherlink.com 1.10,2013-05-14 21:33:00,
2013-05-14 17:48:00,55.0,28.0,29.94,NE,55,1.0,6.0,36,0.00,,,0.00,weatherlink.com 1.10,2013-05-14 21:48:00,
2013-05-14 18:03:00,54.3,29.0,29.94,NNE,13,0.0,7.0,38,0.00,,,0.00,weatherlink.com 1.10,2013-05-14 22:03:00,
2013-05-14 18:18:00,54.9,30.0,29.93,NE,44,0.0,5.0,38,0.00,,,0.00,weatherlink.com 1.10,2013-05-14 22:18:00,
2013-05-14 18:33:00,55.2,30.0,29.93,SW,232,2.0,5.0,39,0.00,,,0.00,weatherlink.com 1.10,2013-05-14 22:33:00,
2013-05-14 18:48:00,58.2,32.0,29.91,SW,232,0.0,2.0,37,0.00,,,0.00,weatherlink.com 1.10,2013-05-14 22:48:00,
2013-05-14 19:03:00,60.9,31.0,29.91,ESE,113,0.0,4.0,33,0.00,,,0.00,weatherlink.com 1.10,2013-05-14 23:03:00,
2013-05-14 19:18:00,58.6,30.0,29.91,SE,128,3.0,6.0,34,0.00,,,0.00,weatherlink.com 1.10,2013-05-14 23:18:00,
2013-05-14 19:33:00,56.0,31.0,29.91,ESE,103,3.0,5.0,38,0.00,,,0.00,weatherlink.com 1.10,2013-05-14 23:33:00,
2013-05-14 19:48:00,55.0,32.0,29.91,ESE,102,1.0,4.0,42,0.00,,,0.00,weatherlink.com 1.10,2013-05-14 23:48:00,
2013-05-14 20:03:00,52.8,31.0,29.91,ESE,123,3.0,5.0,43,0.00,,,0.00,weatherlink.com 1.10,2013-05-15 00:03:00,
2013-05-14 20:18:00,50.8,31.0,29.91,ESE,113,2.0,5.0,46,0.00,,,0.00,weatherlink.com 1.10,2013-05-15 00:18:00,
2013-05-14 20:33:00,49.4,32.0,29.91,SE,125,0.0,1.0,52,0.00,,,0.00,weatherlink.com 1.10,2013-05-15 00:33:00,
2013-05-14 20:48:00,48.0,32.0,29.91,SE,125,0.0,0.0,54,0.00,,,0.00,weatherlink.com 1.10,2013-05-15 00:48:00,
2013-05-14 21:03:00,46.8,33.0,29.92,SE,128,0.0,0.0,59,0.00,,,0.00,weatherlink.com 1.10,2013-05-15 01:03:00,
2013-05-14 21:19:00,45.9,33.0,29.93,SE,128,0.0,2.0,61,0.00,,,0.00,weatherlink.com 1.10,2013-05-15 01:19:00,
2013-05-14 21:34:00,44.9,34.0,29.93,SE,128,0.0,0.0,66,0.00,,,0.00,weatherlink.com 1.10,2013-05-15 01:34:00,
2013-05-14 21:49:00,44.2,33.0,29.93,SE,127,0.0,0.0,64,0.00,,,0.00,weatherlink.com 1.10,2013-05-15 01:49:00,
2013-05-14 22:04:00,44.2,33.0,29.93,SE,127,0.0,1.0,64,0.00,,,0.00,weatherlink.com 1.10,2013-05-15 02:04:00,
2013-05-14 22:19:00,44.1,33.0,29.92,SE,126,0.0,2.0,64,0.00,,,0.00,weatherlink.com 1.10,2013-05-15 02:19:00,
2013-05-14 22:49:00,44.1,32.0,29.92,ESE,123,0.0,1.0,63,0.00,,,0.00,weatherlink.com 1.10,2013-05-15 02:49:00,
2013-05-14 23:04:00,44.1,32.0,29.92,SSE,154,0.0,0.0,63,0.00,,,0.00,weatherlink.com 1.10,2013-05-15 03:04:00,
2013-05-14 23:19:00,43.5,32.0,29.91,SSE,154,0.0,1.0,64,0.00,,,0.00,weatherlink.com 1.10,2013-05-15 03:19:00,
2013-05-14 23:34:00,42.8,32.0,29.91,ESE,123,0.0,2.0,66,0.00,,,0.00,weatherlink.com 1.10,2013-05-15 03:34:00,
2013-05-14 23:49:00,42.3,32.0,29.91,ESE,123,0.0,2.0,67,0.00,,,0.00,weatherlink.com 1.10,2013-05-15 03:49:00,